Time;durP1;ratioP1;P1;durP2;ratioP2;P2;SDS_P1;SDS_P2;PMS_P1;PMS_P2;Temp;Humidity;BMP_temperature;BMP_pressure;BME280_temperature;BME280_humidity;BME280_pressure;Samples;Min_cycle;Max_cycle;Signal;HPM_P1;HPM_P2
2022/08/23 00:02:07;;;;;;;1.30;1.20;;;27.70;45.30;;;-147.20;100.00;58430.41;5114302;28;20054;-10
2022/08/23 00:04:39;;;;;;;3.00;1.80;;;27.60;45.20;;;-147.20;100.00;58430.41;5114669;28;20116;-10
2022/08/23 00:07:13;;;;;;;1.70;1.30;;;27.60;45.20;;;-147.20;100.00;58430.41;5114513;28;20542;-11
2022/08/23 00:09:40;;;;;;;1.88;1.20;;;27.70;45.20;;;-147.20;100.00;58430.41;5110348;28;20154;-10
2022/08/23 00:12:16;;;;;;;1.67;1.58;;;27.70;45.20;;;-147.20;100.00;58430.41;5114053;28;20108;-10
2022/08/23 00:14:47;;;;;;;2.03;1.38;;;27.70;45.30;;;-147.20;100.00;58430.41;5114070;28;20104;-10
2022/08/23 00:17:14;;;;;;;1.55;1.40;;;27.60;45.20;;;-147.20;100.00;58430.41;5113944;28;20123;-10
2022/08/23 00:19:41;;;;;;;1.38;1.02;;;27.70;45.30;;;-147.20;100.00;58430.41;5114054;28;20488;-10
2022/08/23 00:22:08;;;;;;;1.52;1.25;;;27.60;45.30;;;-147.20;100.00;58430.41;5114087;28;20044;-10
2022/08/23 00:24:35;;;;;;;2.38;1.40;;;27.60;45.20;;;-147.20;100.00;58430.41;5114063;28;20044;-10
2022/08/23 00:27:14;;;;;;;1.30;1.20;;;27.60;45.30;;;-147.20;100.00;58430.41;5114328;28;20489;-10
2022/08/23 00:29:50;;;;;;;1.23;0.93;;;27.60;45.30;;;-147.20;100.00;58430.41;5095553;28;20071;-10
2022/08/23 00:32:30;;;;;;;1.30;1.20;;;27.60;45.20;;;-147.20;100.00;58430.41;5094288;28;20052;-10
2022/08/23 00:34:58;;;;;;;1.33;1.23;;;27.60;45.30;;;-147.20;100.00;58430.41;5113320;28;20047;-10
2022/08/23 00:37:26;;;;;;;1.33;1.23;;;27.60;45.30;;;-147.20;100.00;58430.41;5113551;28;20045;-10
2022/08/23 00:39:52;;;;;;;1.77;1.40;;;27.60;45.30;;;-147.20;100.00;58430.41;5113674;28;20193;-10
2022/08/23 00:48:47;;;;;;;1.77;1.40;;;27.60;45.30;;;-147.20;100.00;58430.41;5098032;28;20476;-10
2022/08/23 00:51:21;;;;;;;1.13;1.08;;;27.60;45.30;;;-147.20;100.00;58430.41;5095365;28;20569;-10
2022/08/23 00:53:55;;;;;;;1.40;1.30;;;27.60;45.30;;;-147.20;100.00;58430.41;5093520;28;20078;-10
2022/08/23 00:56:24;;;;;;;1.33;1.20;;;27.60;45.30;;;-147.20;100.00;58430.41;5095662;28;20047;-10
2022/08/23 00:58:50;;;;;;;2.17;1.40;;;27.60;45.30;;;-147.20;100.00;58430.41;5091517;28;20052;-10
2022/08/23 01:01:16;;;;;;;1.23;1.13;;;27.60;45.30;;;-147.20;100.00;58430.41;5113356;28;20040;-10
2022/08/23 01:03:49;;;;;;;1.40;1.30;;;27.60;45.30;;;-147.20;100.00;58430.41;5112357;28;20061;-10
2022/08/23 01:06:45;;;;;;;1.77;1.35;;;27.60;45.30;;;-147.20;100.00;58430.41;5113615;28;20054;-10
2022/08/23 01:09:18;;;;;;;2.03;1.27;;;27.60;45.30;;;-147.20;100.00;58430.41;5095310;28;20071;-10
2022/08/23 01:11:56;;;;;;;2.22;1.30;;;27.60;45.30;;;-147.20;100.00;58430.41;5095390;28;20138;-10
2022/08/23 01:14:40;;;;;;;1.60;1.35;;;27.60;45.30;;;-147.20;100.00;58430.41;5093637;28;20421;-10
2022/08/23 01:17:22;;;;;;;1.45;1.30;;;27.60;45.30;;;-147.20;100.00;58430.41;5113032;28;20466;-10
2022/08/23 01:19:55;;;;;;;2.15;1.45;;;27.60;45.30;;;-147.20;100.00;58430.41;5094646;28;20039;-10
2022/08/23 01:22:27;;;;;;;1.70;1.20;;;27.60;45.30;;;-147.20;100.00;58430.41;5078076;28;20076;-10
2022/08/23 01:24:54;;;;;;;1.77;1.40;;;27.60;45.30;;;-147.20;100.00;58430.41;5095281;28;20139;-10
2022/08/23 01:27:20;;;;;;;1.20;1.10;;;27.60;45.30;;;-147.20;100.00;58430.41;5063064;28;20501;-10
2022/08/23 01:29:46;;;;;;;1.83;1.25;;;27.50;45.30;;;-147.20;100.00;58430.41;5113198;28;20054;-10
2022/08/23 01:32:13;;;;;;;1.48;1.20;;;27.60;45.40;;;-147.20;100.00;58430.41;5092934;28;20048;-10
2022/08/23 01:34:38;;;;;;;2.25;1.67;;;27.60;45.40;;;-147.20;100.00;58430.41;5094535;28;20048;-10
2022/08/23 01:37:08;;;;;;;1.88;1.23;;;27.60;45.40;;;-147.20;100.00;58430.41;5112882;28;20062;-10
2022/08/23 01:39:35;;;;;;;1.13;1.02;;;27.60;45.40;;;-147.20;100.00;58430.41;5112928;28;20051;-10
2022/08/23 01:42:04;;;;;;;1.48;1.25;;;27.60;45.40;;;-147.20;100.00;58430.41;5093233;28;20079;-10
2022/08/23 01:44:30;;;;;;;1.58;1.40;;;27.60;45.40;;;-147.20;100.00;58430.41;5094497;28;20063;-10
2022/08/23 01:46:56;;;;;;;1.30;1.20;;;27.50;45.30;;;-147.20;100.00;58430.41;5113075;28;20040;-10
2022/08/23 01:49:22;;;;;;;1.73;1.40;;;27.50;45.30;;;-147.20;100.00;58430.41;5097456;28;20100;-10
2022/08/23 01:51:48;;;;;;;2.90;1.48;;;27.60;45.40;;;-147.20;100.00;58430.41;5116239;28;20123;-10
2022/08/23 01:54:14;;;;;;;1.20;1.10;;;27.60;45.40;;;-147.20;100.00;58430.41;5096656;28;20054;-10
2022/08/23 01:56:41;;;;;;;2.55;1.52;;;27.60;45.40;;;-147.20;100.00;58430.41;5116352;28;20052;-10
2022/08/23 01:59:11;;;;;;;1.45;1.20;;;27.50;45.30;;;-147.20;100.00;58430.41;5097537;28;20048;-10
2022/08/23 02:01:42;;;;;;;1.40;1.20;;;27.60;45.40;;;-147.20;100.00;58430.41;5097860;28;20128;-10
2022/08/23 02:04:08;;;;;;;1.48;1.25;;;27.60;45.40;;;-147.20;100.00;58430.41;5097551;28;20492;-10
2022/08/23 02:06:34;;;;;;;1.35;1.20;;;27.60;45.40;;;-147.20;100.00;58430.41;5098372;28;20061;-10
2022/08/23 02:09:03;;;;;;;2.50;1.30;;;27.60;45.40;;;-147.20;100.00;58430.41;5098461;28;20181;-10
2022/08/23 02:11:38;;;;;;;1.27;1.13;;;27.50;45.40;;;-147.20;100.00;58430.41;5098146;28;20143;-10
2022/08/23 02:14:09;;;;;;;1.40;1.20;;;27.50;45.40;;;-147.20;100.00;58430.41;5098299;28;20066;-10
2022/08/23 02:16:49;;;;;;;1.33;1.08;;;27.50;45.40;;;-147.20;100.00;58430.41;5097676;28;20047;-10
2022/08/23 02:19:15;;;;;;;1.75;1.40;;;27.50;45.40;;;-147.20;100.00;58430.41;5098127;28;20119;-10
2022/08/23 02:21:42;;;;;;;2.05;1.40;;;27.50;45.40;;;-147.20;100.00;58430.41;5116008;28;20540;-10
2022/08/23 02:24:19;;;;;;;2.47;1.40;;;27.50;45.40;;;-147.20;100.00;58430.41;5098030;28;20052;-10
2022/08/23 02:26:53;;;;;;;2.22;1.50;;;27.50;45.40;;;-147.20;100.00;58430.41;5097818;28;20058;-10
2022/08/23 02:29:22;;;;;;;1.90;1.40;;;27.50;45.40;;;-147.20;100.00;58430.41;5095871;28;20047;-10
2022/08/23 02:31:50;;;;;;;2.47;1.30;;;27.50;45.40;;;-147.20;100.00;58430.41;5115866;28;20043;-10
2022/08/23 02:34:17;;;;;;;1.60;1.35;;;27.50;45.40;;;-147.20;100.00;58430.41;5115615;28;20134;-10
2022/08/23 02:36:44;;;;;;;1.67;1.23;;;27.50;45.40;;;-147.20;100.00;58430.41;5097375;28;20052;-10
2022/08/23 02:39:12;;;;;;;1.48;1.13;;;27.50;45.40;;;-147.20;100.00;58430.41;5116190;28;20371;-10
2022/08/23 02:41:40;;;;;;;1.63;1.38;;;27.50;45.40;;;-147.20;100.00;58430.41;5115933;28;20117;-10
2022/08/23 02:44:07;;;;;;;1.40;1.30;;;27.50;45.40;;;-147.20;100.00;58430.41;5097573;28;20096;-10
2022/08/23 02:46:34;;;;;;;1.55;1.23;;;27.50;45.40;;;-147.20;100.00;58430.41;5097163;28;20105;-10
2022/08/23 02:49:00;;;;;;;1.80;1.30;;;27.50;45.40;;;-147.20;100.00;58430.41;5115436;28;20150;-10
2022/08/23 02:51:26;;;;;;;1.10;1.00;;;27.50;45.40;;;-147.20;100.00;58430.41;5096077;28;20117;-10
2022/08/23 02:53:52;;;;;;;2.53;1.20;;;27.50;45.40;;;-147.20;100.00;58430.41;5080304;28;20040;-10
2022/08/23 02:56:21;;;;;;;2.03;1.33;;;27.50;45.40;;;-147.20;100.00;58430.41;5097119;28;20465;-10
2022/08/23 02:58:50;;;;;;;1.42;1.20;;;27.50;45.40;;;-147.20;100.00;58430.41;5096546;28;20043;-10
2022/08/23 03:01:21;;;;;;;2.22;1.20;;;27.50;46.00;;;-147.20;100.00;58430.41;5096947;28;20048;-10
2022/08/23 03:03:50;;;;;;;1.00;1.00;;;27.50;45.40;;;-147.20;100.00;58430.41;5095494;28;20051;-10
2022/08/23 03:06:17;;;;;;;1.38;1.00;;;27.50;45.50;;;-147.20;100.00;58430.41;5115222;28;20077;-10
2022/08/23 03:08:44;;;;;;;1.45;1.27;;;27.50;45.50;;;-147.20;100.00;58430.41;5078925;28;20071;-10
2022/08/23 03:11:16;;;;;;;1.38;1.10;;;27.50;45.50;;;-147.20;100.00;58430.41;5097223;28;20044;-10
2022/08/23 03:13:46;;;;;;;1.20;1.10;;;27.50;45.50;;;-147.20;100.00;58430.41;5080237;28;20051;-10
2022/08/23 03:16:14;;;;;;;4.65;1.40;;;27.50;45.50;;;-147.20;100.00;58430.41;5095450;28;20060;-10
2022/08/23 03:18:45;;;;;;;1.65;1.40;;;27.50;45.50;;;-147.20;100.00;58430.41;5097045;28;20477;-10
2022/08/23 03:21:12;;;;;;;2.17;1.10;;;27.40;45.50;;;-147.20;100.00;58430.41;5113646;28;20105;-10
2022/08/23 03:23:39;;;;;;;1.25;1.15;;;27.50;45.50;;;-147.20;100.00;58430.41;5096787;28;20043;-10
2022/08/23 03:26:08;;;;;;;1.60;1.10;;;27.40;45.50;;;-147.20;100.00;58430.41;5114789;28;20493;-10
2022/08/23 03:28:38;;;;;;;2.20;1.23;;;27.50;45.50;;;-147.20;100.00;58430.41;5079582;28;20108;-10
2022/08/23 03:31:06;;;;;;;1.40;1.02;;;27.50;45.50;;;-147.20;100.00;58430.41;5096531;28;20092;-10
2022/08/23 03:33:39;;;;;;;1.40;1.10;;;27.50;45.50;;;-147.20;100.00;58430.41;5096954;28;20381;-10
2022/08/23 03:36:09;;;;;;;1.35;1.23;;;27.40;45.50;;;-147.20;100.00;58430.41;5096668;28;20123;-10
2022/08/23 03:38:36;;;;;;;1.63;1.27;;;27.40;45.50;;;-147.20;100.00;58430.41;5114756;28;20062;-10
2022/08/23 03:41:05;;;;;;;2.30;1.40;;;27.50;45.50;;;-147.20;100.00;58430.41;5096900;28;20047;-10
2022/08/23 03:43:31;;;;;;;1.90;1.40;;;27.40;45.40;;;-147.20;100.00;58430.41;5096312;28;20048;-10
2022/08/23 03:45:57;;;;;;;2.65;1.35;;;27.50;45.50;;;-147.20;100.00;58430.41;5096617;28;20127;-10
2022/08/23 03:48:23;;;;;;;1.83;1.10;;;27.50;45.50;;;-147.20;100.00;58430.41;5096104;28;20465;-10
2022/08/23 03:50:50;;;;;;;1.48;1.38;;;27.50;45.50;;;-147.20;100.00;58430.41;5096481;28;20394;-10
2022/08/23 03:53:16;;;;;;;1.40;1.30;;;27.50;45.50;;;-147.20;100.00;58430.41;5096013;28;20051;-10
2022/08/23 03:55:44;;;;;;;1.70;1.15;;;27.50;45.50;;;-147.20;100.00;58430.41;5079613;28;20510;-10
2022/08/23 03:58:14;;;;;;;1.77;1.20;;;27.50;45.40;;;-147.20;100.00;58430.41;5094428;28;20139;-10
2022/08/23 04:00:40;;;;;;;1.63;1.30;;;27.50;45.50;;;-147.20;100.00;58430.41;5095715;28;20075;-10
2022/08/23 04:03:06;;;;;;;1.67;1.42;;;27.40;45.40;;;-147.20;100.00;58430.41;5114909;28;20051;-10
2022/08/23 04:05:40;;;;;;;1.23;1.00;;;27.50;45.50;;;-147.20;100.00;58430.41;5095774;28;20119;-10
2022/08/23 04:08:13;;;;;;;2.00;1.33;;;27.40;45.40;;;-147.20;100.00;58430.41;5096243;28;20047;-10
2022/08/23 04:10:41;;;;;;;2.50;1.20;;;27.50;45.50;;;-147.20;100.00;58430.41;5095126;28;20047;-10
2022/08/23 04:13:07;;;;;;;1.30;1.20;;;27.40;45.50;;;-147.20;100.00;58430.41;5095491;28;20044;-10
2022/08/23 04:15:34;;;;;;;1.20;1.08;;;27.40;45.50;;;-147.20;100.00;58430.41;5096347;28;20040;-10
2022/08/23 04:18:01;;;;;;;1.35;1.25;;;27.40;45.50;;;-147.20;100.00;58430.41;5095552;28;20043;-10
2022/08/23 04:20:28;;;;;;;1.73;1.27;;;27.40;45.50;;;-147.20;100.00;58430.41;5096155;28;20508;-10
2022/08/23 04:22:58;;;;;;;1.10;1.00;;;27.40;45.50;;;-147.20;100.00;58430.41;5095721;28;20056;-10
2022/08/23 04:25:26;;;;;;;2.05;1.52;;;27.40;45.50;;;-147.20;100.00;58430.41;5095711;28;20051;-10
2022/08/23 04:27:53;;;;;;;1.88;1.35;;;27.50;45.50;;;-147.20;100.00;58430.41;5095358;28;20138;-10
2022/08/23 04:30:20;;;;;;;1.52;1.33;;;27.50;45.50;;;-147.20;100.00;58430.41;5095517;28;20044;-10
2022/08/23 04:32:48;;;;;;;1.67;1.25;;;27.40;45.40;;;-147.20;100.00;58430.41;5095554;28;20043;-10
2022/08/23 04:35:15;;;;;;;1.30;1.20;;;27.50;45.40;;;-147.20;100.00;58430.41;5095927;28;20050;-10
2022/08/23 04:37:42;;;;;;;1.58;1.40;;;27.50;45.40;;;-147.20;100.00;58430.41;5095330;28;20108;-10
2022/08/23 04:42:54;;;;;;;1.80;1.10;;;27.60;45.30;;;-147.20;100.00;58430.41;5081616;28;20117;-10
2022/08/23 04:45:21;;;;;;;1.38;1.10;;;27.60;45.30;;;-147.20;100.00;58430.41;5093944;28;20046;-10
2022/08/23 04:47:52;;;;;;;1.58;1.40;;;27.50;45.20;;;-147.20;100.00;58430.41;5095305;28;20066;-11
2022/08/23 04:50:19;;;;;;;2.08;1.23;;;27.60;45.30;;;-147.20;100.00;58430.41;5095457;28;20063;-11
2022/08/23 04:53:03;;;;;;;1.48;1.25;;;27.60;45.30;;;-147.20;100.00;58430.41;5114003;28;20054;-10
2022/08/23 04:55:35;;;;;;;2.95;1.20;;;27.60;45.20;;;-147.20;100.00;58430.41;5093349;28;20048;-10
2022/08/23 04:58:05;;;;;;;1.40;1.00;;;27.60;45.20;;;-147.20;100.00;58430.41;5095194;28;20051;-10
2022/08/23 05:00:38;;;;;;;1.70;1.08;;;27.60;45.70;;;-147.20;100.00;58430.41;5095243;28;20071;-10
2022/08/23 05:03:04;;;;;;;1.77;1.13;;;27.60;45.20;;;-147.20;100.00;58430.41;5094834;28;20481;-10
2022/08/23 05:05:30;;;;;;;1.65;1.23;;;27.60;45.10;;;-147.20;100.00;58430.41;5094307;28;20051;-10
2022/08/23 05:07:55;;;;;;;1.58;1.48;;;27.60;45.20;;;-147.20;100.00;58430.41;5113234;28;20075;-10
2022/08/23 05:10:22;;;;;;;1.58;1.27;;;27.60;45.20;;;-147.20;100.00;58430.41;5095244;28;20047;-10
2022/08/23 05:12:52;;;;;;;1.17;1.05;;;27.60;45.20;;;-147.20;100.00;58430.41;5094919;28;20055;-10
2022/08/23 05:15:20;;;;;;;1.40;1.30;;;27.60;45.20;;;-147.20;100.00;58430.41;5095290;28;20047;-10
2022/08/23 05:17:52;;;;;;;2.42;1.40;;;27.70;45.10;;;-147.20;100.00;58430.41;5094567;28;20429;-10
2022/08/23 05:20:18;;;;;;;1.88;1.30;;;27.70;45.00;;;-147.20;100.00;58430.41;5094468;28;20048;-10
2022/08/23 05:22:45;;;;;;;1.40;1.30;;;27.80;44.90;;;-147.20;100.00;58430.41;5093537;28;20512;-10
2022/08/23 05:25:20;;;;;;;2.03;1.40;;;27.80;44.90;;;-147.20;100.00;58430.41;5079685;28;20052;-10
2022/08/23 05:27:47;;;;;;;1.85;1.40;;;27.90;44.80;;;-147.20;100.00;58430.41;5111444;28;20044;-10
2022/08/23 05:30:13;;;;;;;1.45;1.27;;;27.90;44.80;;;-147.20;100.00;58430.41;5094645;28;20397;-10
2022/08/23 05:32:39;;;;;;;1.45;1.20;;;27.90;44.70;;;-147.20;100.00;58430.41;5094554;28;20047;-10
2022/08/23 05:35:08;;;;;;;1.35;1.25;;;27.90;44.70;;;-147.20;100.00;58430.41;5093446;28;20469;-10
2022/08/23 05:37:36;;;;;;;1.42;1.30;;;27.90;44.60;;;-147.20;100.00;58430.41;5094418;28;20051;-10
2022/08/23 05:40:03;;;;;;;2.08;1.40;;;28.00;44.70;;;-147.20;100.00;58430.41;5112767;28;20124;-10
2022/08/23 05:42:34;;;;;;;1.30;1.20;;;28.10;44.60;;;-147.20;100.00;58430.41;5093738;28;20142;-10
2022/08/23 05:45:00;;;;;;;3.55;1.63;;;28.10;44.40;;;-147.20;100.00;58430.41;5075765;28;20562;-10
2022/08/23 05:47:26;;;;;;;2.15;1.30;;;28.20;44.80;;;-147.20;100.00;58430.41;5094055;28;20048;-11
2022/08/23 05:50:08;;;;;;;4.00;1.70;;;28.20;44.70;;;-147.20;100.00;58430.41;5093752;28;20055;-10
2022/08/23 05:52:36;;;;;;;2.47;1.65;;;28.20;45.70;;;-147.20;100.00;58430.41;5076337;28;20162;-10
2022/08/23 05:55:03;;;;;;;2.20;1.27;;;28.20;45.10;;;-147.20;100.00;58430.41;5092088;28;20495;-10
2022/08/23 05:57:50;;;;;;;1.83;1.30;;;28.20;44.90;;;-147.20;100.00;58430.41;5113066;28;20062;-10
2022/08/23 06:00:16;;;;;;;2.88;1.63;;;28.20;45.00;;;-147.20;100.00;58430.41;5094696;28;20043;-10
2022/08/23 06:02:48;;;;;;;2.47;1.30;;;28.20;45.20;;;-147.20;100.00;58430.41;5112589;28;20040;-10
2022/08/23 06:05:16;;;;;;;2.45;1.50;;;28.20;45.30;;;-147.20;100.00;58430.41;5094165;28;20142;-10
2022/08/23 06:07:44;;;;;;;3.30;1.40;;;28.20;45.40;;;-147.20;100.00;58430.41;5093977;28;20085;-10
2022/08/23 06:10:10;;;;;;;3.63;1.45;;;28.10;45.50;;;-147.20;100.00;58430.41;5112538;28;20481;-10
2022/08/23 06:12:36;;;;;;;3.03;1.35;;;28.10;45.50;;;-147.20;100.00;58430.41;5075706;28;20052;-10
2022/08/23 06:15:02;;;;;;;2.83;1.52;;;28.20;45.70;;;-147.20;100.00;58430.41;5093895;28;20051;-10
2022/08/23 06:17:29;;;;;;;1.98;1.42;;;28.20;45.70;;;-147.20;100.00;58430.41;5092637;28;20052;-10
2022/08/23 06:19:54;;;;;;;2.53;1.38;;;28.20;45.50;;;-147.20;100.00;58430.41;5091877;28;20091;-10
2022/08/23 06:22:29;;;;;;;2.17;1.55;;;28.20;45.60;;;-147.20;100.00;58430.41;5092457;28;20397;-10
2022/08/23 06:24:55;;;;;;;4.25;1.77;;;28.20;45.90;;;-147.20;100.00;58430.41;5111791;28;20051;-10
2022/08/23 06:27:39;;;;;;;2.45;1.48;;;28.10;45.40;;;-147.20;100.00;58430.41;5092572;28;20069;-11
2022/08/23 06:30:07;;;;;;;2.30;1.50;;;28.20;45.30;;;-147.20;100.00;58430.41;5112023;28;20482;-10
2022/08/23 06:32:33;;;;;;;2.72;1.42;;;28.20;45.20;;;-147.20;100.00;58430.41;5111950;28;20478;-10
2022/08/23 06:35:19;;;;;;;1.52;1.30;;;28.20;45.10;;;-147.20;100.00;58430.41;5115832;28;20408;-10
2022/08/23 06:38:03;;;;;;;2.08;1.70;;;28.20;45.00;;;-147.20;100.00;58430.41;5097168;28;20047;-10
2022/08/23 06:40:48;;;;;;;5.25;1.50;;;28.20;45.00;;;-147.20;100.00;58430.41;5097868;28;20039;-10
2022/08/23 06:43:26;;;;;;;2.38;1.60;;;28.30;45.00;;;-147.20;100.00;58430.41;5115581;28;20039;-10
2022/08/23 06:46:12;;;;;;;2.50;1.88;;;28.40;44.80;;;-147.20;100.00;58430.41;5097529;28;20046;-10
2022/08/23 06:48:38;;;;;;;2.50;1.50;;;28.50;44.60;;;-147.20;100.00;58430.41;5115405;28;20405;-10
2022/08/23 06:51:14;;;;;;;1.95;1.52;;;28.60;44.40;;;-147.20;100.00;58430.41;5095079;28;20044;-10
2022/08/23 06:53:55;;;;;;;2.72;1.60;;;28.70;44.30;;;-147.20;100.00;58430.41;5097703;28;20047;-10
2022/08/23 06:56:40;;;;;;;1.70;1.60;;;28.80;44.20;;;-147.20;100.00;58430.41;5097473;28;20040;-10
2022/08/23 06:59:12;;;;;;;1.50;1.30;;;28.90;44.20;;;-147.20;100.00;58430.41;5097276;28;20044;-10
2022/08/23 07:02:00;;;;;;;2.45;1.70;;;29.00;44.10;;;-147.20;100.00;58430.41;5115354;28;20075;-10
2022/08/23 07:04:52;;;;;;;1.55;1.33;;;29.10;44.00;;;-147.20;100.00;58430.41;5083128;28;20044;-10
2022/08/23 07:07:37;;;;;;;2.58;1.52;;;29.10;43.70;;;-147.20;100.00;58430.41;5115455;28;20104;-10
2022/08/23 07:10:05;;;;;;;2.22;1.17;;;29.20;43.80;;;-147.20;100.00;58430.41;5096884;28;20490;-10
2022/08/23 07:12:31;;;;;;;1.95;1.40;;;29.20;43.90;;;-147.20;100.00;58430.41;5095858;28;20134;-9
2022/08/23 07:14:57;;;;;;;4.10;1.48;;;29.20;43.60;;;-147.20;100.00;58430.41;5095426;28;20565;-10
2022/08/23 07:17:24;;;;;;;1.92;1.35;;;29.30;43.60;;;-147.20;100.00;58430.41;5081327;28;20134;-10
2022/08/23 07:19:50;;;;;;;2.05;1.40;;;29.30;43.60;;;-147.20;100.00;58430.41;5095254;28;20147;-10
2022/08/23 07:22:18;;;;;;;2.05;1.48;;;29.40;43.50;;;-147.20;100.00;58430.41;5094479;28;20134;-10
2022/08/23 07:24:44;;;;;;;1.73;1.30;;;29.40;43.30;;;-147.20;100.00;58430.41;5096415;28;20044;-10
2022/08/23 07:27:11;;;;;;;2.90;1.67;;;29.40;43.50;;;-147.20;100.00;58430.41;5096031;28;20052;-10
2022/08/23 07:29:51;;;;;;;;;;;29.40;43.40;;;-147.20;100.00;58430.41;5096933;28;20043;-10
2022/08/23 07:32:17;;;;;;;2.53;1.65;;;29.40;43.40;;;-147.20;100.00;58430.41;5114743;28;20388;-10
2022/08/23 07:34:43;;;;;;;1.63;1.27;;;29.40;43.40;;;-147.20;100.00;58430.41;5113771;28;20933;-10
2022/08/23 07:37:09;;;;;;;2.17;1.77;;;29.50;43.50;;;-147.20;100.00;58430.41;5079285;28;20490;-10
2022/08/23 07:39:35;;;;;;;3.78;1.92;;;29.50;43.50;;;-147.20;100.00;58430.41;5096414;28;20058;-10
2022/08/23 07:42:03;;;;;;;3.40;1.85;;;29.50;43.50;;;-147.20;100.00;58430.41;5114219;28;20058;-10
2022/08/23 07:44:29;;;;;;;2.45;1.70;;;29.50;43.80;;;-147.20;100.00;58430.41;5095884;28;20911;-10
2022/08/23 07:46:55;;;;;;;4.78;1.80;;;29.50;43.50;;;-147.20;100.00;58430.41;5094122;28;20087;-10
2022/08/23 07:49:22;;;;;;;3.45;1.83;;;29.50;43.30;;;-147.20;100.00;58430.41;5095052;28;20051;-12
2022/08/23 07:51:50;;;;;;;3.05;1.80;;;29.50;43.20;;;-147.20;100.00;58430.41;5093957;28;20050;-10
2022/08/23 07:54:21;;;;;;;2.03;1.73;;;29.50;42.80;;;-147.20;100.00;58430.41;5079637;28;20438;-10
2022/08/23 07:56:58;;;;;;;4.28;1.75;;;29.50;43.20;;;-147.20;100.00;58430.41;5096319;28;20040;-10
2022/08/23 07:59:42;;;;;;;5.10;2.00;;;29.50;43.20;;;-147.20;100.00;58430.41;5113289;28;20063;-12
2022/08/23 08:02:24;;;;;;;4.00;1.70;;;29.50;43.60;;;-147.20;100.00;58430.41;5110647;28;20083;-12
2022/08/23 08:04:50;;;;;;;2.58;1.50;;;29.50;43.40;;;-147.20;100.00;58430.41;5112190;28;20078;-11
2022/08/23 08:07:16;;;;;;;2.83;1.58;;;29.50;44.00;;;-147.20;100.00;58430.41;5093954;28;20071;-11
2022/08/23 08:09:44;;;;;;;2.05;1.58;;;29.60;44.30;;;-147.20;100.00;58430.41;5112149;28;20055;-11
2022/08/23 08:12:10;;;;;;;2.90;1.80;;;29.50;44.20;;;-147.20;100.00;58430.41;5095743;28;20484;-10
2022/08/23 08:14:40;;;;;;;2.65;1.80;;;29.60;43.90;;;-147.20;100.00;58430.41;5095320;28;20061;-12
2022/08/23 08:17:08;;;;;;;2.63;1.70;;;29.60;44.70;;;-147.20;100.00;58430.41;5092744;28;20044;-10
2022/08/23 08:19:54;;;;;;;2.30;1.58;;;29.60;44.00;;;-147.20;100.00;58430.41;5113951;28;20043;-10
2022/08/23 08:22:46;;;;;;;3.03;1.80;;;29.60;43.90;;;-147.20;100.00;58430.41;5095844;28;20044;-10
2022/08/23 08:25:32;;;;;;;2.35;1.50;;;29.60;43.80;;;-147.20;100.00;58430.41;5096052;28;20143;-10
2022/08/23 08:27:59;;;;;;;3.42;1.55;;;29.50;43.80;;;-147.20;100.00;58430.41;5094331;28;20048;-10
2022/08/23 08:30:26;;;;;;;2.35;1.85;;;29.50;43.80;;;-147.20;100.00;58430.41;5096099;28;20048;-10
2022/08/23 08:32:52;;;;;;;2.70;1.90;;;29.50;43.90;;;-147.20;100.00;58430.41;5095455;28;20075;-10
2022/08/23 08:35:19;;;;;;;2.47;1.70;;;29.50;43.90;;;-147.20;100.00;58430.41;5095265;28;20048;-10
2022/08/23 08:37:46;;;;;;;2.45;1.45;;;29.50;44.60;;;-147.20;100.00;58430.41;5095087;28;20568;-11
2022/08/23 08:40:15;;;;;;;2.70;1.67;;;29.50;44.50;;;-147.20;100.00;58430.41;5095502;28;20574;-10
2022/08/23 08:43:29;;;;;;;4.60;1.90;;;29.50;44.70;;;-147.20;100.00;58430.41;5095612;28;20375;-10
2022/08/23 08:46:17;;;;;;;4.07;1.80;;;29.40;44.20;;;-147.20;100.00;58430.41;5078194;28;20062;-11
2022/08/23 08:48:48;;;;;;;2.47;1.90;;;29.40;44.20;;;-147.20;100.00;58430.41;5078848;28;20089;-10
2022/08/23 08:51:32;;;;;;;4.50;1.67;;;29.40;44.60;;;-147.20;100.00;58430.41;5113537;28;20051;-10
2022/08/23 08:53:58;;;;;;;2.47;1.60;;;29.40;44.80;;;-147.20;100.00;58430.41;5091653;28;20044;-10
2022/08/23 08:56:38;;;;;;;1.67;1.58;;;29.30;45.20;;;-147.20;100.00;58430.41;5078545;28;20500;-10
2022/08/23 08:59:57;;;;;;;2.67;1.60;;;29.30;44.70;;;-147.20;100.00;58430.41;5081565;28;20130;-10
2022/08/23 09:02:31;;;;;;;5.38;1.80;;;29.30;45.10;;;-147.20;100.00;58430.41;5077213;28;20044;-10
2022/08/23 09:05:01;;;;;;;2.30;1.60;;;29.30;44.90;;;-147.20;100.00;58430.41;5094644;28;20052;-10
2022/08/23 09:07:39;;;;;;;1.70;1.55;;;29.30;44.80;;;-147.20;100.00;58430.41;5060372;28;20056;-10
2022/08/23 09:10:39;;;;;;;3.28;1.73;;;29.30;44.50;;;-147.20;100.00;58430.41;5094873;28;20048;-10
2022/08/23 09:13:31;;;;;;;2.28;1.70;;;29.20;44.50;;;-147.20;100.00;58430.41;5094979;28;20101;-10
2022/08/23 09:16:20;;;;;;;1.65;1.40;;;29.10;44.80;;;-147.20;100.00;58430.41;5091212;28;20048;-10
2022/08/23 09:18:47;;;;;;;2.97;1.60;;;29.10;44.90;;;-147.20;100.00;58430.41;5113197;28;20043;-11
2022/08/23 09:21:14;;;;;;;2.10;1.80;;;29.00;44.70;;;-147.20;100.00;58430.41;5113185;28;20043;-13
2022/08/23 09:23:44;;;;;;;1.95;1.55;;;29.00;44.70;;;-147.20;100.00;58430.41;5113507;28;20093;-11
2022/08/23 09:26:29;;;;;;;1.90;1.70;;;29.00;44.70;;;-147.20;100.00;58430.41;5094773;28;20050;-12
2022/08/23 09:29:02;;;;;;;4.10;1.70;;;29.00;44.50;;;-147.20;100.00;58430.41;5078180;28;20075;-11
2022/08/23 09:31:51;;;;;;;4.28;2.17;;;29.00;44.30;;;-147.20;100.00;58430.41;5078550;28;20060;-11
2022/08/23 09:34:36;;;;;;;2.60;1.88;;;29.00;43.80;;;-147.20;100.00;58430.41;5061932;28;20051;-10
2022/08/23 09:37:23;;;;;;;5.13;2.20;;;28.90;43.20;;;-147.20;100.00;58430.41;5094734;28;20381;-10
2022/08/23 09:40:38;;;;;;;3.28;2.10;;;28.90;43.10;;;-147.20;100.00;58430.41;5093991;28;20141;-10
2022/08/23 09:43:25;;;;;;;3.13;2.00;;;28.90;43.70;;;-147.20;100.00;58430.41;5091495;28;20481;-11
2022/08/23 09:45:54;;;;;;;3.15;2.00;;;28.90;43.10;;;-147.20;100.00;58430.41;5094794;28;20075;-11
2022/08/23 09:48:34;;;;;;;;;;;28.90;43.00;;;-147.20;100.00;58430.41;5078497;28;20055;-11
2022/08/23 09:51:25;;;;;;;4.63;2.05;;;28.80;42.60;;;-147.20;100.00;58430.41;5078047;28;19939;-10
2022/08/23 09:54:16;;;;;;;3.67;1.90;;;28.80;42.30;;;-147.20;100.00;58430.41;5078046;28;20047;-11
2022/08/23 09:56:54;;;;;;;3.30;1.95;;;28.80;42.40;;;-147.20;100.00;58430.41;5094685;28;20051;-13
2022/08/23 09:59:26;;;;;;;2.13;1.90;;;28.80;43.20;;;-147.20;100.00;58430.41;5078071;28;20097;-11
2022/08/23 10:01:58;;;;;;;4.50;1.90;;;28.80;42.50;;;-147.20;100.00;58430.41;5094362;28;20098;-10
2022/08/23 10:04:46;;;;;;;4.18;2.22;;;28.80;42.40;;;-147.20;100.00;58430.41;5094773;28;20113;-10
2022/08/23 10:07:34;;;;;;;5.35;1.92;;;28.70;42.30;;;-147.20;100.00;58430.41;5075358;28;20044;-10
2022/08/23 10:10:32;;;;;;;6.65;1.90;;;28.70;42.70;;;-147.20;100.00;58430.41;5097046;28;20050;-10
2022/08/23 10:13:02;;;;;;;2.85;1.70;;;28.70;42.70;;;-147.20;100.00;58430.41;5097878;28;20136;-10
2022/08/23 10:15:43;;;;;;;3.22;1.67;;;28.70;42.40;;;-147.20;100.00;58430.41;5078503;28;20076;-10
2022/08/23 10:18:53;;;;;;;5.25;1.95;;;28.60;42.50;;;-147.20;100.00;58430.41;5098170;28;20047;-10
2022/08/23 10:21:36;;;;;;;4.28;2.03;;;28.70;42.60;;;-147.20;100.00;58430.41;5097442;28;20435;-10
2022/08/23 10:24:21;;;;;;;4.43;1.80;;;28.60;42.90;;;-147.20;100.00;58430.41;5098134;28;20067;-10
2022/08/23 10:30:13;;;;;;;5.60;2.00;;;28.60;42.70;;;-147.20;100.00;58430.41;5094115;28;20047;-10
2022/08/23 10:33:08;;;;;;;2.38;1.80;;;28.60;42.40;;;-147.20;100.00;58430.41;5080424;28;20126;-10
2022/08/23 10:36:14;;;;;;;2.80;1.60;;;28.60;42.60;;;-147.20;100.00;58430.41;5080422;28;20080;-10